Airfield :
LOGIN :

Register | Disclaimer

   EN    FR    IT 

 










Legend :    VFR   Marginal VFR   IFR   Intensive IFR   Very Intensive IFR
Visi :
Ceiling :
>= 8 km
>= 3000ft
5 to 8 km
1000 to 3000 ft
1500m to 5 km
500 to 1000 ft
800 to 1500m
200 to 500 ft
< 800m
< 200 ft
Symbols :   Thunderstorms  Fog  Heavy snow  Heavy precipitations  Wind > 20 kt
SIGMETs :     Misc.  Thunderstorms  Icing  Turbulence  Mountain Waves  Volcanic Ashes






- Airport Elevation : 1895 ft


LSMM - Meiringen

CURRENT METAR :
  • 191520Z VRB09G19KT 8000 -RA SCT027 BKN036 BKN045 04/00 Q1025 RMK BLU

EXPIRED METARs :
  • 191450Z 02011G21KT 290V070 8000 -SHRA SCT030 BKN040 BKN045 05/M00 Q1024 RMK BLU
  • 191420Z 30013G25KT 270V030 8000 3900W -SHRA SCT026 OVC045 06/M00 Q1024
  • 191350Z 25007G17KT 210V320 8000 -SHRA FEW026 BKN037 OVC091 07/01 Q1023 RMK BLU
  • 191320Z 30008KT 250V010 8000 -SHRA FEW026 BKN036 OVC043 06/00 Q1023 RMK BLU
  • 191250Z AUTO 31015KT 280V350 9999NDV -RA SCT032 OVC052 06/00 Q1023 RERA RMK

Expired Forecast.



MET'MAP, your aeronautical weather chart ! - Copyright ORBIFLY December 2007 - Disclaimer

ORBIFLY MET'MAP TEAM :

Programming & Development : Alexandra Zaïnal
Concept & original design : Baudouin d'Aumeries
Assistance for programming : Marc-Olivier Méhu
Technical & hardware support : Manuel Goepfert

Contact : metmap@orbifly.com




SOURCES & CREDITS :

   NOAA